sensor_id;sensor_type;location;lat;lon;timestamp;P1;durP1;ratioP1;P2;durP2;ratioP2
5718;SDS011;2884;47.734;9.244;2023-11-19T00:01:01;1.20;;;1.20;;
5718;SDS011;2884;47.734;9.244;2023-11-19T00:03:26;1.40;;;1.40;;
5718;SDS011;2884;47.734;9.244;2023-11-19T00:05:52;0.90;;;0.90;;
5718;SDS011;2884;47.734;9.244;2023-11-19T00:08:17;1.03;;;1.03;;
5718;SDS011;2884;47.734;9.244;2023-11-19T00:10:44;1.23;;;1.23;;
5718;SDS011;2884;47.734;9.244;2023-11-19T00:13:11;1.20;;;1.17;;
5718;SDS011;2884;47.734;9.244;2023-11-19T00:15:37;1.00;;;1.00;;
5718;SDS011;2884;47.734;9.244;2023-11-19T00:18:03;1.23;;;1.13;;
5718;SDS011;2884;47.734;9.244;2023-11-19T00:20:29;1.17;;;1.17;;
5718;SDS011;2884;47.734;9.244;2023-11-19T00:22:56;1.63;;;1.50;;
5718;SDS011;2884;47.734;9.244;2023-11-19T00:25:22;1.73;;;1.50;;
5718;SDS011;2884;47.734;9.244;2023-11-19T00:27:47;1.60;;;1.50;;
5718;SDS011;2884;47.734;9.244;2023-11-19T00:30:13;1.83;;;1.73;;
5718;SDS011;2884;47.734;9.244;2023-11-19T00:32:39;1.30;;;1.30;;
5718;SDS011;2884;47.734;9.244;2023-11-19T00:35:06;1.97;;;1.53;;
5718;SDS011;2884;47.734;9.244;2023-11-19T00:37:32;1.53;;;1.50;;
5718;SDS011;2884;47.734;9.244;2023-11-19T00:39:58;1.43;;;1.40;;
5718;SDS011;2884;47.734;9.244;2023-11-19T00:42:23;1.43;;;1.43;;
5718;SDS011;2884;47.734;9.244;2023-11-19T00:44:50;1.37;;;1.37;;
5718;SDS011;2884;47.734;9.244;2023-11-19T00:47:15;1.10;;;1.10;;
5718;SDS011;2884;47.734;9.244;2023-11-19T00:49:41;1.30;;;1.30;;
5718;SDS011;2884;47.734;9.244;2023-11-19T00:52:08;4.43;;;3.10;;
5718;SDS011;2884;47.734;9.244;2023-11-19T00:54:33;1.33;;;1.33;;
5718;SDS011;2884;47.734;9.244;2023-11-19T00:56:59;1.63;;;1.57;;
5718;SDS011;2884;47.734;9.244;2023-11-19T00:59:26;3.47;;;2.13;;
5718;SDS011;2884;47.734;9.244;2023-11-19T01:01:53;1.90;;;1.70;;
5718;SDS011;2884;47.734;9.244;2023-11-19T01:04:19;1.60;;;1.50;;
5718;SDS011;2884;47.734;9.244;2023-11-19T01:06:47;1.47;;;1.37;;
5718;SDS011;2884;47.734;9.244;2023-11-19T01:09:13;1.00;;;1.00;;
5718;SDS011;2884;47.734;9.244;2023-11-19T01:11:38;1.60;;;1.50;;
5718;SDS011;2884;47.734;9.244;2023-11-19T01:14:04;1.77;;;1.67;;
5718;SDS011;2884;47.734;9.244;2023-11-19T01:16:30;1.53;;;1.40;;
5718;SDS011;2884;47.734;9.244;2023-11-19T01:18:56;1.80;;;1.70;;
5718;SDS011;2884;47.734;9.244;2023-11-19T01:21:22;1.50;;;1.50;;
5718;SDS011;2884;47.734;9.244;2023-11-19T01:23:47;1.70;;;1.60;;
5718;SDS011;2884;47.734;9.244;2023-11-19T01:26:13;1.43;;;1.43;;
5718;SDS011;2884;47.734;9.244;2023-11-19T01:28:39;1.30;;;1.27;;
5718;SDS011;2884;47.734;9.244;2023-11-19T01:31:05;1.77;;;1.67;;
5718;SDS011;2884;47.734;9.244;2023-11-19T01:33:33;1.57;;;1.47;;
5718;SDS011;2884;47.734;9.244;2023-11-19T01:36:01;1.63;;;1.53;;
5718;SDS011;2884;47.734;9.244;2023-11-19T01:38:27;1.30;;;1.30;;
5718;SDS011;2884;47.734;9.244;2023-11-19T01:40:55;1.53;;;1.53;;
5718;SDS011;2884;47.734;9.244;2023-11-19T01:43:30;1.60;;;1.43;;
5718;SDS011;2884;47.734;9.244;2023-11-19T01:46:04;1.40;;;1.40;;
5718;SDS011;2884;47.734;9.244;2023-11-19T01:48:31;1.40;;;1.30;;
5718;SDS011;2884;47.734;9.244;2023-11-19T01:50:58;1.60;;;1.53;;
5718;SDS011;2884;47.734;9.244;2023-11-19T01:53:24;2.00;;;1.50;;
5718;SDS011;2884;47.734;9.244;2023-11-19T01:55:49;1.23;;;1.23;;
5718;SDS011;2884;47.734;9.244;2023-11-19T01:58:15;2.40;;;2.23;;
5718;SDS011;2884;47.734;9.244;2023-11-19T02:00:42;1.40;;;1.40;;
5718;SDS011;2884;47.734;9.244;2023-11-19T02:03:08;1.47;;;1.37;;
5718;SDS011;2884;47.734;9.244;2023-11-19T02:05:33;1.40;;;1.40;;
5718;SDS011;2884;47.734;9.244;2023-11-19T02:07:59;1.57;;;1.57;;
5718;SDS011;2884;47.734;9.244;2023-11-19T02:10:25;1.70;;;1.60;;
5718;SDS011;2884;47.734;9.244;2023-11-19T02:12:50;1.43;;;1.43;;
5718;SDS011;2884;47.734;9.244;2023-11-19T02:15:16;1.53;;;1.50;;
5718;SDS011;2884;47.734;9.244;2023-11-19T02:17:44;1.70;;;1.60;;
5718;SDS011;2884;47.734;9.244;2023-11-19T02:20:09;1.80;;;1.70;;
5718;SDS011;2884;47.734;9.244;2023-11-19T02:22:38;2.20;;;1.50;;
5718;SDS011;2884;47.734;9.244;2023-11-19T02:25:04;1.70;;;1.70;;
5718;SDS011;2884;47.734;9.244;2023-11-19T02:30:15;1.73;;;1.73;;
5718;SDS011;2884;47.734;9.244;2023-11-19T02:32:41;1.23;;;1.23;;
5718;SDS011;2884;47.734;9.244;2023-11-19T02:35:07;1.57;;;1.57;;
5718;SDS011;2884;47.734;9.244;2023-11-19T02:37:36;1.53;;;1.50;;
5718;SDS011;2884;47.734;9.244;2023-11-19T02:40:04;1.40;;;1.30;;
5718;SDS011;2884;47.734;9.244;2023-11-19T02:42:30;1.50;;;1.50;;
5718;SDS011;2884;47.734;9.244;2023-11-19T02:44:56;1.97;;;1.97;;
5718;SDS011;2884;47.734;9.244;2023-11-19T02:47:22;1.87;;;1.77;;
5718;SDS011;2884;47.734;9.244;2023-11-19T02:49:49;1.93;;;1.83;;
5718;SDS011;2884;47.734;9.244;2023-11-19T02:52:15;2.17;;;1.80;;
5718;SDS011;2884;47.734;9.244;2023-11-19T02:54:41;2.00;;;1.90;;
5718;SDS011;2884;47.734;9.244;2023-11-19T02:57:07;1.77;;;1.77;;
5718;SDS011;2884;47.734;9.244;2023-11-19T02:59:39;1.83;;;1.83;;
5718;SDS011;2884;47.734;9.244;2023-11-19T03:02:07;1.53;;;1.53;;
5718;SDS011;2884;47.734;9.244;2023-11-19T03:04:39;2.00;;;1.90;;
5718;SDS011;2884;47.734;9.244;2023-11-19T03:07:05;1.70;;;1.60;;
5718;SDS011;2884;47.734;9.244;2023-11-19T03:13:03;1.87;;;1.83;;
5718;SDS011;2884;47.734;9.244;2023-11-19T03:15:29;1.70;;;1.60;;
5718;SDS011;2884;47.734;9.244;2023-11-19T03:17:55;1.77;;;1.67;;
5718;SDS011;2884;47.734;9.244;2023-11-19T03:20:20;1.40;;;1.40;;
5718;SDS011;2884;47.734;9.244;2023-11-19T03:22:46;1.60;;;1.60;;
5718;SDS011;2884;47.734;9.244;2023-11-19T03:25:12;1.50;;;1.50;;
5718;SDS011;2884;47.734;9.244;2023-11-19T03:27:38;1.50;;;1.40;;
5718;SDS011;2884;47.734;9.244;2023-11-19T03:30:04;1.40;;;1.40;;
5718;SDS011;2884;47.734;9.244;2023-11-19T03:32:31;1.57;;;1.57;;
5718;SDS011;2884;47.734;9.244;2023-11-19T03:34:57;1.50;;;1.50;;
5718;SDS011;2884;47.734;9.244;2023-11-19T03:37:23;1.13;;;1.13;;
5718;SDS011;2884;47.734;9.244;2023-11-19T03:39:49;1.43;;;1.43;;
5718;SDS011;2884;47.734;9.244;2023-11-19T03:42:14;1.57;;;1.47;;
5718;SDS011;2884;47.734;9.244;2023-11-19T03:44:40;1.30;;;1.30;;
5718;SDS011;2884;47.734;9.244;2023-11-19T03:47:05;1.30;;;1.30;;
5718;SDS011;2884;47.734;9.244;2023-11-19T03:49:31;1.33;;;1.30;;
5718;SDS011;2884;47.734;9.244;2023-11-19T03:51:57;1.33;;;1.33;;
5718;SDS011;2884;47.734;9.244;2023-11-19T03:54:23;1.60;;;1.50;;
5718;SDS011;2884;47.734;9.244;2023-11-19T03:56:48;1.47;;;1.37;;
5718;SDS011;2884;47.734;9.244;2023-11-19T03:59:14;1.40;;;1.30;;
5718;SDS011;2884;47.734;9.244;2023-11-19T04:01:40;1.30;;;1.20;;
5718;SDS011;2884;47.734;9.244;2023-11-19T04:04:06;1.67;;;0.97;;
5718;SDS011;2884;47.734;9.244;2023-11-19T04:06:32;1.20;;;1.20;;
5718;SDS011;2884;47.734;9.244;2023-11-19T04:08:57;1.00;;;1.00;;
5718;SDS011;2884;47.734;9.244;2023-11-19T04:11:23;1.17;;;1.17;;
5718;SDS011;2884;47.734;9.244;2023-11-19T04:13:49;1.03;;;1.03;;
5718;SDS011;2884;47.734;9.244;2023-11-19T04:16:14;1.20;;;1.20;;
5718;SDS011;2884;47.734;9.244;2023-11-19T04:18:40;1.20;;;1.07;;
5718;SDS011;2884;47.734;9.244;2023-11-19T04:21:06;1.03;;;1.03;;
5718;SDS011;2884;47.734;9.244;2023-11-19T04:23:32;2.70;;;1.20;;
5718;SDS011;2884;47.734;9.244;2023-11-19T04:25:57;1.17;;;1.17;;
5718;SDS011;2884;47.734;9.244;2023-11-19T04:28:23;1.20;;;1.20;;
5718;SDS011;2884;47.734;9.244;2023-11-19T04:30:52;0.90;;;0.90;;
5718;SDS011;2884;47.734;9.244;2023-11-19T04:33:17;1.00;;;0.93;;
5718;SDS011;2884;47.734;9.244;2023-11-19T04:35:45;1.17;;;1.17;;
5718;SDS011;2884;47.734;9.244;2023-11-19T04:38:10;0.80;;;0.80;;
5718;SDS011;2884;47.734;9.244;2023-11-19T04:40:36;1.00;;;1.00;;
5718;SDS011;2884;47.734;9.244;2023-11-19T04:43:02;1.00;;;1.00;;
5718;SDS011;2884;47.734;9.244;2023-11-19T04:45:27;1.00;;;1.00;;
5718;SDS011;2884;47.734;9.244;2023-11-19T04:47:53;1.17;;;1.17;;
5718;SDS011;2884;47.734;9.244;2023-11-19T04:50:18;1.20;;;1.10;;
5718;SDS011;2884;47.734;9.244;2023-11-19T04:52:46;1.00;;;1.00;;
5718;SDS011;2884;47.734;9.244;2023-11-19T04:55:12;0.97;;;0.97;;
5718;SDS011;2884;47.734;9.244;2023-11-19T04:57:39;1.17;;;1.17;;
5718;SDS011;2884;47.734;9.244;2023-11-19T05:00:05;1.10;;;1.10;;
5718;SDS011;2884;47.734;9.244;2023-11-19T05:02:33;1.20;;;1.20;;
5718;SDS011;2884;47.734;9.244;2023-11-19T05:05:00;1.83;;;1.63;;
5718;SDS011;2884;47.734;9.244;2023-11-19T05:07:26;1.40;;;1.40;;
5718;SDS011;2884;47.734;9.244;2023-11-19T05:09:52;1.70;;;1.70;;
5718;SDS011;2884;47.734;9.244;2023-11-19T05:12:17;2.00;;;1.93;;
5718;SDS011;2884;47.734;9.244;2023-11-19T05:14:43;2.57;;;2.37;;
5718;SDS011;2884;47.734;9.244;2023-11-19T05:17:14;1.57;;;1.57;;
5718;SDS011;2884;47.734;9.244;2023-11-19T05:19:40;1.60;;;1.60;;
5718;SDS011;2884;47.734;9.244;2023-11-19T05:22:05;1.30;;;1.30;;
5718;SDS011;2884;47.734;9.244;2023-11-19T05:24:31;1.27;;;1.10;;
5718;SDS011;2884;47.734;9.244;2023-11-19T05:27:00;1.23;;;1.23;;
5718;SDS011;2884;47.734;9.244;2023-11-19T05:29:26;1.10;;;1.10;;
5718;SDS011;2884;47.734;9.244;2023-11-19T05:31:52;1.40;;;1.30;;
5718;SDS011;2884;47.734;9.244;2023-11-19T05:34:17;1.40;;;1.40;;
5718;SDS011;2884;47.734;9.244;2023-11-19T05:36:46;1.03;;;1.03;;
5718;SDS011;2884;47.734;9.244;2023-11-19T05:39:12;3.93;;;1.97;;
5718;SDS011;2884;47.734;9.244;2023-11-19T05:41:38;7.97;;;4.57;;
5718;SDS011;2884;47.734;9.244;2023-11-19T05:44:04;4.60;;;3.73;;
5718;SDS011;2884;47.734;9.244;2023-11-19T05:46:29;2.00;;;1.90;;
5718;SDS011;2884;47.734;9.244;2023-11-19T05:48:55;1.97;;;1.87;;
5718;SDS011;2884;47.734;9.244;2023-11-19T05:51:20;1.60;;;1.50;;
5718;SDS011;2884;47.734;9.244;2023-11-19T05:53:46;1.20;;;1.20;;
5718;SDS011;2884;47.734;9.244;2023-11-19T05:56:11;1.10;;;1.10;;
5718;SDS011;2884;47.734;9.244;2023-11-19T05:58:37;0.70;;;0.70;;
5718;SDS011;2884;47.734;9.244;2023-11-19T06:01:06;1.70;;;1.27;;
5718;SDS011;2884;47.734;9.244;2023-11-19T06:03:32;0.97;;;0.97;;
5718;SDS011;2884;47.734;9.244;2023-11-19T06:06:01;1.50;;;1.27;;
5718;SDS011;2884;47.734;9.244;2023-11-19T06:08:30;1.13;;;1.13;;
5718;SDS011;2884;47.734;9.244;2023-11-19T06:10:56;3.13;;;2.90;;
5718;SDS011;2884;47.734;9.244;2023-11-19T06:13:25;1.47;;;1.37;;
5718;SDS011;2884;47.734;9.244;2023-11-19T06:15:50;3.00;;;2.90;;
5718;SDS011;2884;47.734;9.244;2023-11-19T06:18:22;2.90;;;2.70;;
5718;SDS011;2884;47.734;9.244;2023-11-19T06:20:48;1.00;;;1.00;;
5718;SDS011;2884;47.734;9.244;2023-11-19T06:23:14;1.33;;;1.23;;
5718;SDS011;2884;47.734;9.244;2023-11-19T06:25:40;2.57;;;2.47;;
5718;SDS011;2884;47.734;9.244;2023-11-19T06:28:13;2.47;;;2.30;;
5718;SDS011;2884;47.734;9.244;2023-11-19T06:30:38;1.93;;;1.83;;
5718;SDS011;2884;47.734;9.244;2023-11-19T06:33:06;2.10;;;1.33;;
5718;SDS011;2884;47.734;9.244;2023-11-19T06:35:32;1.03;;;1.03;;
5718;SDS011;2884;47.734;9.244;2023-11-19T06:38:04;1.50;;;1.47;;
5718;SDS011;2884;47.734;9.244;2023-11-19T06:40:33;2.00;;;1.20;;
5718;SDS011;2884;47.734;9.244;2023-11-19T06:43:02;0.80;;;0.80;;
5718;SDS011;2884;47.734;9.244;2023-11-19T06:45:28;1.00;;;1.00;;
5718;SDS011;2884;47.734;9.244;2023-11-19T06:47:54;1.00;;;1.00;;
5718;SDS011;2884;47.734;9.244;2023-11-19T06:50:20;0.63;;;0.63;;
5718;SDS011;2884;47.734;9.244;2023-11-19T06:52:46;0.90;;;0.90;;
5718;SDS011;2884;47.734;9.244;2023-11-19T06:55:12;1.10;;;1.10;;
5718;SDS011;2884;47.734;9.244;2023-11-19T06:57:38;1.00;;;1.00;;
5718;SDS011;2884;47.734;9.244;2023-11-19T07:00:04;1.00;;;1.00;;
5718;SDS011;2884;47.734;9.244;2023-11-19T07:02:31;0.80;;;0.80;;
5718;SDS011;2884;47.734;9.244;2023-11-19T07:04:57;1.10;;;1.10;;
5718;SDS011;2884;47.734;9.244;2023-11-19T07:07:22;1.17;;;1.17;;
5718;SDS011;2884;47.734;9.244;2023-11-19T07:09:55;1.40;;;1.40;;
5718;SDS011;2884;47.734;9.244;2023-11-19T07:12:23;0.90;;;0.90;;
5718;SDS011;2884;47.734;9.244;2023-11-19T07:14:52;1.40;;;1.40;;
5718;SDS011;2884;47.734;9.244;2023-11-19T07:17:18;1.40;;;1.30;;
5718;SDS011;2884;47.734;9.244;2023-11-19T07:19:45;1.20;;;1.20;;
5718;SDS011;2884;47.734;9.244;2023-11-19T07:22:11;1.57;;;1.20;;
5718;SDS011;2884;47.734;9.244;2023-11-19T07:24:38;1.10;;;1.10;;
5718;SDS011;2884;47.734;9.244;2023-11-19T07:27:05;0.77;;;0.77;;
5718;SDS011;2884;47.734;9.244;2023-11-19T07:29:31;0.80;;;0.80;;
5718;SDS011;2884;47.734;9.244;2023-11-19T07:32:00;0.80;;;0.80;;
5718;SDS011;2884;47.734;9.244;2023-11-19T07:34:27;0.77;;;0.60;;
5718;SDS011;2884;47.734;9.244;2023-11-19T07:36:54;0.40;;;0.40;;
5718;SDS011;2884;47.734;9.244;2023-11-19T07:39:22;0.40;;;0.40;;
5718;SDS011;2884;47.734;9.244;2023-11-19T07:41:48;0.40;;;0.40;;
5718;SDS011;2884;47.734;9.244;2023-11-19T07:44:14;0.27;;;0.27;;
5718;SDS011;2884;47.734;9.244;2023-11-19T07:46:39;0.50;;;0.50;;
5718;SDS011;2884;47.734;9.244;2023-11-19T07:49:07;0.37;;;0.37;;
5718;SDS011;2884;47.734;9.244;2023-11-19T07:51:32;0.40;;;0.40;;
5718;SDS011;2884;47.734;9.244;2023-11-19T07:53:59;0.43;;;0.43;;
5718;SDS011;2884;47.734;9.244;2023-11-19T07:56:25;0.50;;;0.50;;
5718;SDS011;2884;47.734;9.244;2023-11-19T07:58:50;0.50;;;0.50;;
5718;SDS011;2884;47.734;9.244;2023-11-19T08:01:17;0.50;;;0.50;;
5718;SDS011;2884;47.734;9.244;2023-11-19T08:03:42;0.67;;;0.60;;
5718;SDS011;2884;47.734;9.244;2023-11-19T08:06:08;0.60;;;0.60;;
5718;SDS011;2884;47.734;9.244;2023-11-19T08:08:33;0.50;;;0.50;;
5718;SDS011;2884;47.734;9.244;2023-11-19T08:11:00;0.60;;;0.60;;
5718;SDS011;2884;47.734;9.244;2023-11-19T08:13:25;0.57;;;0.57;;
5718;SDS011;2884;47.734;9.244;2023-11-19T08:15:52;0.40;;;0.40;;
5718;SDS011;2884;47.734;9.244;2023-11-19T08:18:17;0.50;;;0.50;;
5718;SDS011;2884;47.734;9.244;2023-11-19T08:20:43;0.50;;;0.50;;
5718;SDS011;2884;47.734;9.244;2023-11-19T08:23:10;0.60;;;0.60;;
5718;SDS011;2884;47.734;9.244;2023-11-19T08:25:35;0.80;;;0.80;;
5718;SDS011;2884;47.734;9.244;2023-11-19T08:28:01;0.80;;;0.80;;
5718;SDS011;2884;47.734;9.244;2023-11-19T08:30:29;1.30;;;1.10;;
5718;SDS011;2884;47.734;9.244;2023-11-19T08:32:55;0.80;;;0.80;;
5718;SDS011;2884;47.734;9.244;2023-11-19T08:35:21;0.50;;;0.50;;
5718;SDS011;2884;47.734;9.244;2023-11-19T08:37:47;0.70;;;0.70;;
5718;SDS011;2884;47.734;9.244;2023-11-19T08:40:12;0.80;;;0.80;;
5718;SDS011;2884;47.734;9.244;2023-11-19T08:42:40;0.77;;;0.77;;
5718;SDS011;2884;47.734;9.244;2023-11-19T08:45:06;0.70;;;0.70;;
5718;SDS011;2884;47.734;9.244;2023-11-19T08:47:35;1.40;;;0.80;;
5718;SDS011;2884;47.734;9.244;2023-11-19T08:50:01;1.90;;;0.60;;
5718;SDS011;2884;47.734;9.244;2023-11-19T08:52:27;0.60;;;0.60;;
5718;SDS011;2884;47.734;9.244;2023-11-19T08:54:52;0.40;;;0.40;;
5718;SDS011;2884;47.734;9.244;2023-11-19T08:57:17;0.50;;;0.50;;
5718;SDS011;2884;47.734;9.244;2023-11-19T08:59:43;0.90;;;0.80;;
5718;SDS011;2884;47.734;9.244;2023-11-19T09:02:10;0.60;;;0.60;;
5718;SDS011;2884;47.734;9.244;2023-11-19T09:04:36;1.07;;;0.73;;
5718;SDS011;2884;47.734;9.244;2023-11-19T09:07:02;0.60;;;0.60;;
5718;SDS011;2884;47.734;9.244;2023-11-19T09:09:28;0.50;;;0.50;;
5718;SDS011;2884;47.734;9.244;2023-11-19T09:11:54;0.83;;;0.60;;
5718;SDS011;2884;47.734;9.244;2023-11-19T09:14:20;0.47;;;0.47;;
5718;SDS011;2884;47.734;9.244;2023-11-19T09:16:49;0.57;;;0.47;;
5718;SDS011;2884;47.734;9.244;2023-11-19T09:19:15;0.53;;;0.40;;
5718;SDS011;2884;47.734;9.244;2023-11-19T09:21:40;0.50;;;0.40;;
5718;SDS011;2884;47.734;9.244;2023-11-19T09:24:06;1.13;;;0.53;;
5718;SDS011;2884;47.734;9.244;2023-11-19T09:26:32;0.37;;;0.37;;
5718;SDS011;2884;47.734;9.244;2023-11-19T09:28:58;0.50;;;0.50;;
5718;SDS011;2884;47.734;9.244;2023-11-19T09:31:23;0.50;;;0.50;;
5718;SDS011;2884;47.734;9.244;2023-11-19T09:33:49;0.60;;;0.50;;
5718;SDS011;2884;47.734;9.244;2023-11-19T09:36:15;0.40;;;0.40;;
5718;SDS011;2884;47.734;9.244;2023-11-19T09:38:42;0.53;;;0.40;;
5718;SDS011;2884;47.734;9.244;2023-11-19T09:41:09;0.50;;;0.50;;
5718;SDS011;2884;47.734;9.244;2023-11-19T09:43:37;0.83;;;0.50;;
5718;SDS011;2884;47.734;9.244;2023-11-19T09:46:04;0.50;;;0.50;;
5718;SDS011;2884;47.734;9.244;2023-11-19T09:48:35;0.50;;;0.50;;
5718;SDS011;2884;47.734;9.244;2023-11-19T09:51:02;0.40;;;0.40;;
5718;SDS011;2884;47.734;9.244;2023-11-19T09:53:32;0.50;;;0.40;;
5718;SDS011;2884;47.734;9.244;2023-11-19T09:55:59;0.43;;;0.43;;
5718;SDS011;2884;47.734;9.244;2023-11-19T09:58:25;0.60;;;0.60;;
5718;SDS011;2884;47.734;9.244;2023-11-19T10:00:51;1.07;;;1.00;;
5718;SDS011;2884;47.734;9.244;2023-11-19T10:03:17;1.40;;;1.33;;
5718;SDS011;2884;47.734;9.244;2023-11-19T10:05:43;1.00;;;1.00;;
5718;SDS011;2884;47.734;9.244;2023-11-19T10:08:08;0.80;;;0.80;;
5718;SDS011;2884;47.734;9.244;2023-11-19T10:10:36;0.50;;;0.50;;
5718;SDS011;2884;47.734;9.244;2023-11-19T10:13:02;0.60;;;0.60;;
5718;SDS011;2884;47.734;9.244;2023-11-19T10:15:28;0.67;;;0.67;;
5718;SDS011;2884;47.734;9.244;2023-11-19T10:18:00;0.60;;;0.60;;
5718;SDS011;2884;47.734;9.244;2023-11-19T10:20:26;0.50;;;0.50;;
5718;SDS011;2884;47.734;9.244;2023-11-19T10:22:52;0.60;;;0.60;;
5718;SDS011;2884;47.734;9.244;2023-11-19T10:25:26;0.70;;;0.70;;
5718;SDS011;2884;47.734;9.244;2023-11-19T10:27:55;0.53;;;0.53;;
5718;SDS011;2884;47.734;9.244;2023-11-19T10:30:23;0.57;;;0.57;;
5718;SDS011;2884;47.734;9.244;2023-11-19T10:35:34;0.57;;;0.50;;
5718;SDS011;2884;47.734;9.244;2023-11-19T10:38:13;0.70;;;0.70;;
5718;SDS011;2884;47.734;9.244;2023-11-19T10:40:40;1.67;;;0.67;;
5718;SDS011;2884;47.734;9.244;2023-11-19T10:43:06;1.13;;;0.70;;
5718;SDS011;2884;47.734;9.244;2023-11-19T10:45:38;1.40;;;0.90;;
5718;SDS011;2884;47.734;9.244;2023-11-19T10:48:04;0.70;;;0.70;;
5718;SDS011;2884;47.734;9.244;2023-11-19T10:50:33;0.70;;;0.70;;
5718;SDS011;2884;47.734;9.244;2023-11-19T10:53:00;0.60;;;0.60;;
5718;SDS011;2884;47.734;9.244;2023-11-19T10:55:27;1.17;;;1.17;;
5718;SDS011;2884;47.734;9.244;2023-11-19T10:57:56;1.37;;;1.33;;
5718;SDS011;2884;47.734;9.244;2023-11-19T11:00:24;0.70;;;0.70;;
5718;SDS011;2884;47.734;9.244;2023-11-19T11:02:51;0.73;;;0.50;;
5718;SDS011;2884;47.734;9.244;2023-11-19T11:05:20;0.60;;;0.60;;
5718;SDS011;2884;47.734;9.244;2023-11-19T11:07:47;0.70;;;0.70;;
5718;SDS011;2884;47.734;9.244;2023-11-19T11:10:14;0.80;;;0.80;;
5718;SDS011;2884;47.734;9.244;2023-11-19T11:12:41;0.60;;;0.60;;
5718;SDS011;2884;47.734;9.244;2023-11-19T11:15:09;0.57;;;0.57;;
5718;SDS011;2884;47.734;9.244;2023-11-19T11:17:37;0.47;;;0.47;;
5718;SDS011;2884;47.734;9.244;2023-11-19T11:20:04;0.63;;;0.60;;
5718;SDS011;2884;47.734;9.244;2023-11-19T11:22:32;0.53;;;0.53;;
5718;SDS011;2884;47.734;9.244;2023-11-19T11:25:11;0.70;;;0.70;;
5718;SDS011;2884;47.734;9.244;2023-11-19T11:27:49;1.40;;;0.60;;
5718;SDS011;2884;47.734;9.244;2023-11-19T11:38:44;0.70;;;0.70;;
5718;SDS011;2884;47.734;9.244;2023-11-19T11:41:17;0.70;;;0.50;;
5718;SDS011;2884;47.734;9.244;2023-11-19T11:43:48;6.07;;;0.73;;
5718;SDS011;2884;47.734;9.244;2023-11-19T11:57:00;0.60;;;0.60;;
5718;SDS011;2884;47.734;9.244;2023-11-19T11:59:27;0.50;;;0.50;;
5718;SDS011;2884;47.734;9.244;2023-11-19T12:02:18;0.50;;;0.50;;
5718;SDS011;2884;47.734;9.244;2023-11-19T12:04:47;0.57;;;0.57;;
5718;SDS011;2884;47.734;9.244;2023-11-19T12:07:16;1.23;;;0.50;;
5718;SDS011;2884;47.734;9.244;2023-11-19T12:09:47;0.60;;;0.60;;
5718;SDS011;2884;47.734;9.244;2023-11-19T12:20:04;0.90;;;0.57;;
5718;SDS011;2884;47.734;9.244;2023-11-19T12:22:37;0.53;;;0.53;;
5718;SDS011;2884;47.734;9.244;2023-11-19T12:25:04;2.20;;;0.60;;
5718;SDS011;2884;47.734;9.244;2023-11-19T12:27:32;0.60;;;0.60;;
5718;SDS011;2884;47.734;9.244;2023-11-19T12:30:02;0.60;;;0.60;;
5718;SDS011;2884;47.734;9.244;2023-11-19T12:32:42;0.57;;;0.57;;
5718;SDS011;2884;47.734;9.244;2023-11-19T12:35:09;0.70;;;0.70;;
5718;SDS011;2884;47.734;9.244;2023-11-19T12:37:48;1.30;;;1.20;;
5718;SDS011;2884;47.734;9.244;2023-11-19T12:42:44;1.60;;;1.50;;
5718;SDS011;2884;47.734;9.244;2023-11-19T12:45:11;1.07;;;1.07;;
5718;SDS011;2884;47.734;9.244;2023-11-19T12:47:38;4.10;;;0.80;;
5718;SDS011;2884;47.734;9.244;2023-11-19T12:50:05;0.60;;;0.60;;
5718;SDS011;2884;47.734;9.244;2023-11-19T12:52:32;1.60;;;0.80;;
5718;SDS011;2884;47.734;9.244;2023-11-19T12:54:58;3.67;;;0.80;;
5718;SDS011;2884;47.734;9.244;2023-11-19T12:57:40;0.83;;;0.70;;
5718;SDS011;2884;47.734;9.244;2023-11-19T13:00:07;0.60;;;0.60;;
5718;SDS011;2884;47.734;9.244;2023-11-19T13:02:52;2.13;;;0.70;;
5718;SDS011;2884;47.734;9.244;2023-11-19T13:05:28;0.63;;;0.63;;
5718;SDS011;2884;47.734;9.244;2023-11-19T13:08:02;1.07;;;0.70;;
5718;SDS011;2884;47.734;9.244;2023-11-19T13:10:30;0.77;;;0.77;;
5718;SDS011;2884;47.734;9.244;2023-11-19T13:13:04;0.67;;;0.60;;
5718;SDS011;2884;47.734;9.244;2023-11-19T13:15:30;1.80;;;0.77;;
5718;SDS011;2884;47.734;9.244;2023-11-19T13:17:57;1.07;;;0.70;;
5718;SDS011;2884;47.734;9.244;2023-11-19T13:20:22;0.63;;;0.63;;
5718;SDS011;2884;47.734;9.244;2023-11-19T13:22:55;0.67;;;0.67;;
5718;SDS011;2884;47.734;9.244;2023-11-19T13:25:21;1.90;;;1.20;;
5718;SDS011;2884;47.734;9.244;2023-11-19T13:27:47;3.40;;;0.80;;
5718;SDS011;2884;47.734;9.244;2023-11-19T13:30:12;0.70;;;0.70;;
5718;SDS011;2884;47.734;9.244;2023-11-19T13:32:38;0.60;;;0.60;;
5718;SDS011;2884;47.734;9.244;2023-11-19T13:35:04;2.43;;;0.70;;
5718;SDS011;2884;47.734;9.244;2023-11-19T13:37:34;0.97;;;0.60;;
5718;SDS011;2884;47.734;9.244;2023-11-19T13:40:00;1.70;;;0.97;;
5718;SDS011;2884;47.734;9.244;2023-11-19T13:42:25;0.53;;;0.50;;
5718;SDS011;2884;47.734;9.244;2023-11-19T13:44:51;0.70;;;0.70;;
5718;SDS011;2884;47.734;9.244;2023-11-19T13:47:16;1.50;;;0.70;;
5718;SDS011;2884;47.734;9.244;2023-11-19T13:49:43;1.33;;;1.20;;
5718;SDS011;2884;47.734;9.244;2023-11-19T13:52:10;0.60;;;0.60;;
5718;SDS011;2884;47.734;9.244;2023-11-19T13:54:37;0.60;;;0.60;;
5718;SDS011;2884;47.734;9.244;2023-11-19T13:57:03;0.80;;;0.80;;
5718;SDS011;2884;47.734;9.244;2023-11-19T13:59:30;0.83;;;0.70;;
5718;SDS011;2884;47.734;9.244;2023-11-19T14:01:57;0.70;;;0.70;;
5718;SDS011;2884;47.734;9.244;2023-11-19T14:04:23;0.70;;;0.70;;
5718;SDS011;2884;47.734;9.244;2023-11-19T14:06:48;0.70;;;0.70;;
5718;SDS011;2884;47.734;9.244;2023-11-19T14:09:14;2.20;;;0.67;;
5718;SDS011;2884;47.734;9.244;2023-11-19T14:11:40;0.77;;;0.77;;
5718;SDS011;2884;47.734;9.244;2023-11-19T14:14:06;1.03;;;0.60;;
5718;SDS011;2884;47.734;9.244;2023-11-19T14:16:31;0.73;;;0.73;;
5718;SDS011;2884;47.734;9.244;2023-11-19T14:18:57;0.70;;;0.70;;
5718;SDS011;2884;47.734;9.244;2023-11-19T14:21:23;0.83;;;0.70;;
5718;SDS011;2884;47.734;9.244;2023-11-19T14:23:50;0.73;;;0.60;;
5718;SDS011;2884;47.734;9.244;2023-11-19T14:26:15;0.60;;;0.60;;
5718;SDS011;2884;47.734;9.244;2023-11-19T14:28:41;0.60;;;0.60;;
5718;SDS011;2884;47.734;9.244;2023-11-19T14:31:07;0.80;;;0.80;;
5718;SDS011;2884;47.734;9.244;2023-11-19T14:33:32;0.60;;;0.60;;
5718;SDS011;2884;47.734;9.244;2023-11-19T14:36:00;0.60;;;0.60;;
5718;SDS011;2884;47.734;9.244;2023-11-19T14:38:25;0.90;;;0.70;;
5718;SDS011;2884;47.734;9.244;2023-11-19T14:40:51;0.60;;;0.60;;
5718;SDS011;2884;47.734;9.244;2023-11-19T14:43:16;0.70;;;0.70;;
5718;SDS011;2884;47.734;9.244;2023-11-19T14:45:42;0.50;;;0.50;;
5718;SDS011;2884;47.734;9.244;2023-11-19T14:48:07;2.00;;;0.70;;
5718;SDS011;2884;47.734;9.244;2023-11-19T14:50:33;0.60;;;0.60;;
5718;SDS011;2884;47.734;9.244;2023-11-19T14:52:58;1.27;;;0.80;;
5718;SDS011;2884;47.734;9.244;2023-11-19T14:55:24;0.70;;;0.70;;
5718;SDS011;2884;47.734;9.244;2023-11-19T14:57:49;0.60;;;0.60;;
5718;SDS011;2884;47.734;9.244;2023-11-19T15:00:16;0.60;;;0.60;;
5718;SDS011;2884;47.734;9.244;2023-11-19T15:02:42;0.60;;;0.60;;
5718;SDS011;2884;47.734;9.244;2023-11-19T15:05:08;0.93;;;0.70;;
5718;SDS011;2884;47.734;9.244;2023-11-19T15:07:37;0.93;;;0.80;;
5718;SDS011;2884;47.734;9.244;2023-11-19T15:10:04;1.37;;;0.70;;
5718;SDS011;2884;47.734;9.244;2023-11-19T15:12:35;0.93;;;0.60;;
5718;SDS011;2884;47.734;9.244;2023-11-19T15:15:05;0.70;;;0.70;;
5718;SDS011;2884;47.734;9.244;2023-11-19T15:17:39;4.13;;;0.60;;
5718;SDS011;2884;47.734;9.244;2023-11-19T15:20:05;0.60;;;0.60;;
5718;SDS011;2884;47.734;9.244;2023-11-19T15:22:31;0.77;;;0.77;;
5718;SDS011;2884;47.734;9.244;2023-11-19T15:24:57;0.70;;;0.70;;
5718;SDS011;2884;47.734;9.244;2023-11-19T15:27:22;3.93;;;0.70;;
5718;SDS011;2884;47.734;9.244;2023-11-19T15:29:47;0.70;;;0.70;;
5718;SDS011;2884;47.734;9.244;2023-11-19T15:32:14;0.97;;;0.60;;
5718;SDS011;2884;47.734;9.244;2023-11-19T15:34:39;0.70;;;0.70;;
5718;SDS011;2884;47.734;9.244;2023-11-19T15:37:06;0.87;;;0.70;;
5718;SDS011;2884;47.734;9.244;2023-11-19T15:39:33;1.10;;;0.67;;
5718;SDS011;2884;47.734;9.244;2023-11-19T15:42:01;1.33;;;0.70;;
5718;SDS011;2884;47.734;9.244;2023-11-19T15:44:27;1.33;;;0.90;;
5718;SDS011;2884;47.734;9.244;2023-11-19T15:46:53;0.60;;;0.60;;
5718;SDS011;2884;47.734;9.244;2023-11-19T15:49:19;2.83;;;0.80;;
5718;SDS011;2884;47.734;9.244;2023-11-19T15:51:44;0.70;;;0.70;;